Time;durP1;ratioP1;P1;durP2;ratioP2;P2;SDS_P1;SDS_P2;PMS_P1;PMS_P2;Temp;Humidity;BMP_temperature;BMP_pressure;BME280_temperature;BME280_humidity;BME280_pressure;Samples;Min_cycle;Max_cycle;Signal;HPM_P1;HPM_P2
2022/08/17 00:01:01;;;;;;;2.90;1.10;;;;;;;26.70;41.67;100600.94;5051317;28;20388;-53
2022/08/17 00:03:32;;;;;;;3.90;1.00;;;;;;;26.67;41.54;100593.94;5050944;28;20543;-49
2022/08/17 00:06:06;;;;;;;3.58;1.00;;;;;;;26.71;41.33;100594.78;5016132;28;20472;-51
2022/08/17 00:08:39;;;;;;;4.50;1.15;;;;;;;26.67;41.62;100595.69;5051452;28;20021;-49
2022/08/17 00:11:09;;;;;;;3.10;0.95;;;;;;;26.72;41.32;100595.69;5051334;28;20395;-49
2022/08/17 00:13:41;;;;;;;1.45;0.85;;;;;;;26.58;41.34;100582.59;5051135;28;20037;-48
2022/08/17 00:16:15;;;;;;;2.22;1.45;;;;;;;26.53;41.94;100585.25;5051792;28;20040;-51
2022/08/17 00:18:44;;;;;;;3.38;0.95;;;;;;;26.48;41.65;100572.06;5052408;28;20033;-52
2022/08/17 00:21:13;;;;;;;1.30;0.80;;;;;;;26.58;41.64;100580.81;5037250;28;20448;-48
2022/08/17 00:23:43;;;;;;;2.17;1.00;;;;;;;26.58;41.79;100582.59;5054825;28;20372;-48
2022/08/17 00:26:13;;;;;;;3.05;0.88;;;;;;;26.51;41.64;100577.34;5055194;28;20029;-48
2022/08/17 00:28:41;;;;;;;1.05;0.80;;;;;;;26.66;41.40;100570.25;5020622;28;20119;-49
2022/08/17 00:31:11;;;;;;;3.28;1.23;;;;;;;26.62;41.33;100579.06;5055204;28;20488;-48
2022/08/17 00:33:42;;;;;;;2.20;0.88;;;;;;;26.58;41.34;100566.78;5054821;28;20503;-50
2022/08/17 00:36:12;;;;;;;1.77;1.00;;;;;;;26.61;41.49;100564.16;5054789;28;20064;-47
2022/08/17 00:38:41;;;;;;;1.95;1.05;;;;;;;26.52;41.63;100565.06;5054935;28;20547;-49
2022/08/17 00:41:16;;;;;;;2.97;1.35;;;;;;;26.47;41.80;100570.34;5054751;28;20032;-51
2022/08/17 00:43:56;;;;;;;3.08;1.20;;;;;;;26.45;41.48;100564.22;5054764;28;20128;-50
2022/08/17 00:46:38;;;;;;;1.75;0.93;;;;;;;26.42;41.86;100566.88;5020517;28;20108;-52
2022/08/17 00:49:08;;;;;;;3.38;1.17;;;;;;;26.45;41.42;100564.22;5054674;28;20132;-51
2022/08/17 00:51:44;;;;;;;1.67;1.05;;;;;;;26.45;41.56;100566.84;5037085;28;20009;-50
2022/08/17 00:54:12;;;;;;;2.88;1.00;;;;;;;26.45;41.72;100565.97;5015000;28;20096;-52
2022/08/17 00:56:46;;;;;;;7.88;1.33;;;;;;;26.37;41.62;100566.88;5014670;28;20402;-50
2022/08/17 00:59:17;;;;;;;5.15;1.33;;;;;;;26.22;41.82;100546.75;5013598;28;20222;-51
2022/08/17 01:01:48;;;;;;;1.92;1.23;;;;;;;26.17;41.85;100556.41;5013551;28;20053;-49
2022/08/17 01:04:18;;;;;;;2.42;1.27;;;;;;;26.10;41.89;100541.50;5014166;28;20477;-48
2022/08/17 01:06:48;;;;;;;3.33;1.15;;;;;;;26.18;42.08;100565.19;5014951;28;20076;-49
2022/08/17 01:09:17;;;;;;;3.45;1.40;;;;;;;26.21;41.83;100571.31;5013406;28;20038;-48
2022/08/17 01:11:50;;;;;;;4.82;1.38;;;;;;;26.27;41.88;100572.16;5014630;28;20025;-50
2022/08/17 01:14:21;;;;;;;1.92;1.40;;;;;;;26.30;41.64;100570.41;5014459;28;20042;-48
2022/08/17 01:16:51;;;;;;;3.33;1.02;;;;;;;26.25;41.45;100569.53;5014098;28;20084;-51
2022/08/17 01:19:22;;;;;;;4.40;1.40;;;;;;;26.16;41.76;100573.06;5013095;28;20030;-47
2022/08/17 01:21:55;;;;;;;2.83;1.33;;;;;;;26.12;42.03;100581.84;5013163;28;20065;-48
2022/08/17 01:24:23;;;;;;;3.40;1.13;;;;;;;26.28;41.57;100590.56;5013021;28;20034;-50
2022/08/17 01:26:52;;;;;;;3.80;1.40;;;;;;;26.29;41.41;100601.97;5013011;28;20472;-47
2022/08/17 01:29:21;;;;;;;7.78;1.45;;;;;;;26.18;41.59;100602.84;5013661;28;20537;-51
2022/08/17 01:31:54;;;;;;;4.05;1.50;;;;;;;26.17;41.56;100598.47;5013053;28;20026;-48
2022/08/17 01:34:23;;;;;;;2.30;1.23;;;;;;;26.30;41.29;100591.44;5014168;28;20026;-48
2022/08/17 01:36:52;;;;;;;3.92;1.30;;;;;;;26.36;41.12;100608.94;5014109;28;20025;-48
2022/08/17 01:39:34;;;;;;;2.72;1.30;;;;;;;26.17;41.48;100601.09;5014002;28;20022;-49
2022/08/17 01:42:40;;;;;;;4.40;1.55;;;;;;;26.19;41.43;100601.97;5012902;28;20017;-50
2022/08/17 01:45:14;;;;;;;3.78;1.42;;;;;;;26.14;41.46;100606.38;5013926;28;20026;-50
2022/08/17 01:47:43;;;;;;;4.17;1.77;;;;;;;26.16;41.67;100601.13;5014049;28;20056;-48
2022/08/17 01:50:16;;;;;;;3.72;1.23;;;;;;;26.17;41.67;100603.72;5013743;28;20117;-48
2022/08/17 01:52:46;;;;;;;3.55;1.55;;;;;;;26.05;41.85;100587.94;5030226;28;20041;-48
2022/08/17 01:55:17;;;;;;;4.07;1.45;;;;;;;26.09;41.84;100606.34;5053291;28;20096;-49
2022/08/17 01:57:46;;;;;;;4.15;1.58;;;;;;;26.10;41.67;100607.22;5035684;28;20029;-49
2022/08/17 02:00:14;;;;;;;2.60;1.40;;;;;;;26.08;41.83;100603.72;5053299;28;20480;-52
2022/08/17 02:02:44;;;;;;;3.15;1.42;;;;;;;26.01;41.68;100604.59;5035347;28;20025;-51
2022/08/17 02:05:13;;;;;;;2.30;1.40;;;;;;;26.07;41.85;100609.84;5053138;28;20037;-48
2022/08/17 02:07:42;;;;;;;4.40;1.90;;;;;;;26.05;41.63;100615.13;5035699;28;20025;-48
2022/08/17 02:10:10;;;;;;;2.88;1.70;;;;;;;26.12;41.62;100616.03;5053000;28;20040;-51
2022/08/17 02:12:39;;;;;;;4.45;1.58;;;;;;;26.20;41.49;100611.63;5052901;28;20068;-48
2022/08/17 02:15:09;;;;;;;4.32;1.52;;;;;;;26.21;41.28;100616.00;5052785;28;20044;-48
2022/08/17 02:17:39;;;;;;;4.35;1.48;;;;;;;26.16;41.20;100611.63;5052940;28;20033;-49
2022/08/17 02:20:09;;;;;;;2.80;1.60;;;;;;;26.18;41.21;100613.38;5052817;28;20032;-53
2022/08/17 02:22:40;;;;;;;3.10;1.63;;;;;;;26.08;41.57;100619.50;5052627;28;20025;-54
2022/08/17 02:25:09;;;;;;;3.03;1.45;;;;;;;26.09;41.39;100613.38;5034827;28;20025;-49
2022/08/17 02:27:39;;;;;;;3.85;1.77;;;;;;;25.94;41.76;100616.88;5052603;28;20027;-49
2022/08/17 02:30:09;;;;;;;2.88;1.40;;;;;;;25.97;41.54;100614.25;5034858;28;20028;-48
2022/08/17 02:32:38;;;;;;;5.32;1.73;;;;;;;25.89;42.08;100611.63;5034939;28;20025;-53
2022/08/17 02:35:08;;;;;;;5.88;1.90;;;;;;;25.91;41.71;100612.50;5052657;28;20052;-47
2022/08/17 02:37:37;;;;;;;3.75;1.50;;;;;;;25.93;41.85;100610.75;5052368;28;20119;-50
2022/08/17 02:40:06;;;;;;;4.13;1.60;;;;;;;25.96;41.54;100604.59;5052386;28;20025;-48
2022/08/17 02:42:38;;;;;;;3.95;1.70;;;;;;;25.97;41.84;100608.13;5051193;28;20115;-50
2022/08/17 02:45:12;;;;;;;8.05;1.77;;;;;;;25.97;41.66;100616.00;5052223;28;20029;-49
2022/08/17 02:47:42;;;;;;;8.45;1.67;;;;;;;25.96;41.77;100609.00;5052600;28;20021;-50
2022/08/17 02:50:13;;;;;;;3.28;1.48;;;;;;;25.94;41.33;100614.25;5052253;28;20048;-48
2022/08/17 02:52:43;;;;;;;5.28;1.80;;;;;;;25.89;41.69;100616.03;5052238;28;20049;-54
2022/08/17 02:55:16;;;;;;;3.38;1.92;;;;;;;25.87;41.79;100626.50;5052155;28;20037;-48
2022/08/17 02:57:45;;;;;;;3.28;1.77;;;;;;;25.88;41.91;100630.91;5052058;28;20405;-52
2022/08/17 03:00:20;;;;;;;3.85;2.03;;;;;;;25.90;41.76;100642.28;5051847;28;20387;-48
2022/08/17 03:02:47;;;;;;;;;;;;;;;25.85;41.69;100633.53;5052479;28;20101;-51
2022/08/17 03:05:19;;;;;;;3.22;1.70;;;;;;;25.93;41.61;100638.78;5052177;28;19912;-51
2022/08/17 03:07:48;;;;;;;6.65;2.03;;;;;;;25.87;41.66;100631.78;5052402;28;20035;-47
2022/08/17 03:10:17;;;;;;;3.35;1.80;;;;;;;25.79;41.76;100625.66;5052192;28;20482;-48
2022/08/17 03:12:46;;;;;;;3.97;2.00;;;;;;;25.77;41.90;100622.16;5052052;28;20028;-49
2022/08/17 03:15:18;;;;;;;7.22;2.08;;;;;;;25.76;41.98;100628.28;5051595;28;20043;-47
2022/08/17 03:17:46;;;;;;;4.93;2.00;;;;;;;25.82;41.94;100616.88;5034508;28;20700;-47
2022/08/17 03:20:16;;;;;;;3.20;1.83;;;;;;;25.69;42.14;100614.28;5051950;28;20025;-48
2022/08/17 03:22:47;;;;;;;4.47;1.98;;;;;;;25.85;41.89;100604.63;5051922;28;20365;-47
2022/08/17 03:25:17;;;;;;;4.68;2.15;;;;;;;25.91;41.51;100601.09;5051832;28;20033;-49
2022/08/17 03:27:46;;;;;;;6.05;2.13;;;;;;;25.92;41.50;100603.75;5034558;28;20542;-48
2022/08/17 03:30:14;;;;;;;3.72;1.92;;;;;;;25.93;41.32;100600.25;5051781;28;20036;-49
2022/08/17 03:32:45;;;;;;;3.83;1.90;;;;;;;25.98;41.26;100597.59;5052126;28;20468;-50
2022/08/17 03:35:17;;;;;;;4.13;1.73;;;;;;;25.86;41.57;100590.59;5034164;28;20033;-48
2022/08/17 03:37:45;;;;;;;6.18;1.80;;;;;;;25.79;41.52;100583.63;5051678;28;20109;-51
2022/08/17 03:40:14;;;;;;;4.32;1.85;;;;;;;25.82;41.43;100578.34;5034502;28;20104;-47
2022/08/17 03:42:43;;;;;;;4.70;2.05;;;;;;;25.79;41.71;100581.84;5033952;28;20036;-48
2022/08/17 03:45:15;;;;;;;5.85;2.05;;;;;;;25.79;41.65;100581.00;5051875;28;20360;-48
2022/08/17 03:56:46;;;;;;;3.03;1.83;;;;;;;25.74;41.60;100557.31;5049051;28;20033;-47
2022/08/17 03:58:54;;;;;;;3.90;2.22;;;;;;;25.71;41.68;100561.72;5049117;28;20048;-48
2022/08/17 04:01:22;;;;;;;6.05;2.10;;;;;;;25.72;41.68;100569.63;5055377;28;20474;-48
2022/08/17 04:03:51;;;;;;;4.82;2.08;;;;;;;25.68;41.84;100567.84;5055197;28;20033;-50
2022/08/17 04:06:19;;;;;;;5.45;2.28;;;;;;;25.72;41.56;100568.72;5037286;28;20098;-50
2022/08/17 04:08:48;;;;;;;6.32;2.03;;;;;;;25.75;41.45;100574.84;5055677;28;20373;-51
2022/08/17 04:11:16;;;;;;;3.25;1.60;;;;;;;25.79;41.47;100581.00;5055431;28;20110;-48
2022/08/17 04:13:45;;;;;;;2.97;1.80;;;;;;;25.80;41.34;100585.38;5055324;28;20013;-54
2022/08/17 04:16:14;;;;;;;3.97;2.05;;;;;;;25.82;41.30;100598.50;5055056;28;20033;-49
2022/08/17 04:18:42;;;;;;;4.47;1.58;;;;;;;25.96;40.78;100594.09;5055083;28;20024;-53
2022/08/17 04:21:11;;;;;;;4.47;2.08;;;;;;;25.91;41.21;100587.97;5054975;28;20179;-53
2022/08/17 04:23:40;;;;;;;3.90;1.70;;;;;;;25.94;40.73;100591.47;5037136;28;20107;-54
2022/08/17 04:26:09;;;;;;;3.95;1.80;;;;;;;25.72;41.41;100590.63;5054769;28;20498;-54
2022/08/17 04:28:37;;;;;;;4.03;2.00;;;;;;;25.73;41.31;100588.88;5054717;28;20029;-51
2022/08/17 04:31:06;;;;;;;3.97;1.80;;;;;;;25.72;41.29;100585.38;5054944;28;20101;-49
2022/08/17 04:33:34;;;;;;;3.38;1.83;;;;;;;25.77;41.04;100586.22;5054774;28;20403;-49
2022/08/17 04:36:06;;;;;;;6.80;2.15;;;;;;;25.70;41.38;100596.75;5054692;28;20028;-51
2022/08/17 04:38:37;;;;;;;6.93;2.05;;;;;;;25.54;41.80;100591.50;5054879;28;20021;-52
2022/08/17 04:43:57;;;;;;;5.07;1.88;;;;;;;25.63;41.41;100601.13;5047795;28;20499;-50
2022/08/17 04:46:28;;;;;;;3.70;1.80;;;;;;;25.52;41.53;100600.25;5054524;28;20479;-51
2022/08/17 04:48:57;;;;;;;6.68;1.83;;;;;;;25.50;41.93;100600.22;5054558;28;20072;-50
2022/08/17 04:51:30;;;;;;;4.75;2.10;;;;;;;25.61;41.24;100600.25;5054300;28;20079;-49
2022/08/17 04:54:01;;;;;;;3.75;1.42;;;;;;;25.75;41.24;100600.25;5054058;28;20053;-50
2022/08/17 04:56:30;;;;;;;3.10;1.65;;;;;;;25.59;41.34;100602.88;5054308;28;20388;-48
2022/08/17 04:59:02;;;;;;;4.25;1.98;;;;;;;25.52;41.37;100597.63;5054523;28;20472;-47
2022/08/17 05:01:32;;;;;;;1.92;1.42;;;;;;;25.70;41.24;100596.75;5054456;28;20547;-50
2022/08/17 05:04:03;;;;;;;7.72;2.08;;;;;;;25.57;41.31;100596.75;5053768;28;20083;-48
2022/08/17 05:06:32;;;;;;;2.00;1.55;;;;;;;25.59;41.15;100605.50;5053942;28;20031;-49
2022/08/17 05:09:00;;;;;;;2.90;1.83;;;;;;;25.60;41.42;100606.38;5036133;28;20017;-49
2022/08/17 05:11:30;;;;;;;4.75;1.98;;;;;;;25.55;41.41;100609.00;5054343;28;20525;-48
2022/08/17 05:13:59;;;;;;;4.15;2.05;;;;;;;25.45;41.57;100602.00;5036387;28;20056;-50
2022/08/17 05:16:28;;;;;;;6.72;1.92;;;;;;;25.52;41.24;100608.13;5053754;28;20430;-48
2022/08/17 05:18:58;;;;;;;4.40;2.33;;;;;;;25.50;41.18;100617.75;5036356;28;20020;-50
2022/08/17 05:21:27;;;;;;;4.10;2.10;;;;;;;25.41;41.46;100615.97;5053824;28;20487;-48
2022/08/17 05:23:57;;;;;;;3.60;2.03;;;;;;;25.41;41.54;100618.59;5053864;28;20029;-47
2022/08/17 05:26:27;;;;;;;4.57;2.50;;;;;;;25.50;41.45;100617.75;5036315;28;20120;-47
2022/08/17 05:28:56;;;;;;;5.68;2.13;;;;;;;25.51;41.50;100623.00;5053658;28;20035;-51
2022/08/17 05:31:25;;;;;;;4.78;2.03;;;;;;;25.48;41.43;100623.88;5053797;28;20025;-51
2022/08/17 05:33:54;;;;;;;3.33;1.80;;;;;;;25.48;41.33;100630.91;5053737;28;20029;-48
2022/08/17 05:36:22;;;;;;;5.32;2.05;;;;;;;25.42;41.67;100636.13;5053733;28;20029;-51
2022/08/17 05:38:51;;;;;;;3.17;1.73;;;;;;;25.44;41.59;100630.00;5035862;28;20037;-50
2022/08/17 05:41:19;;;;;;;4.85;2.03;;;;;;;25.33;41.72;100632.56;5053210;28;20024;-51
2022/08/17 05:43:48;;;;;;;5.13;1.67;;;;;;;25.42;41.35;100634.38;5053437;28;20440;-50
2022/08/17 05:46:19;;;;;;;3.15;1.92;;;;;;;25.46;41.47;100656.28;5053252;28;20029;-47
2022/08/17 05:48:51;;;;;;;4.38;1.80;;;;;;;25.58;41.10;100661.53;5053582;28;20021;-48
2022/08/17 05:51:24;;;;;;;9.00;2.10;;;;;;;25.63;41.02;100665.06;5053561;28;20025;-47
2022/08/17 05:54:08;;;;;;;2.95;1.80;;;;;;;25.55;41.35;100664.16;5053200;28;20053;-49
2022/08/17 05:57:14;;;;;;;6.50;1.55;;;;;;;25.68;41.15;100667.69;5036104;28;20029;-49
2022/08/17 05:59:55;;;;;;;6.13;1.88;;;;;;;25.78;40.71;100663.31;5048783;28;20029;-49
2022/08/17 06:02:26;;;;;;;6.00;2.22;;;;;;;25.59;41.21;100671.19;5034973;28;20028;-50
2022/08/17 06:05:14;;;;;;;2.10;1.45;;;;;;;25.55;41.31;100679.06;5052872;28;20079;-50
2022/08/17 06:07:49;;;;;;;4.05;1.90;;;;;;;25.63;41.25;100683.44;5046052;28;20048;-48
2022/08/17 06:10:24;;;;;;;7.03;2.40;;;;;;;25.55;41.27;100685.16;5053755;28;20524;-51
2022/08/17 06:13:04;;;;;;;4.47;1.90;;;;;;;25.59;41.19;100689.56;5052550;28;20040;-50
2022/08/17 06:15:37;;;;;;;6.43;2.20;;;;;;;25.48;41.47;100686.03;5035334;28;20028;-51
2022/08/17 06:18:08;;;;;;;3.70;1.70;;;;;;;25.53;41.37;100688.69;5052604;28;20029;-52
2022/08/17 06:20:46;;;;;;;6.20;1.85;;;;;;;25.59;41.47;100675.53;5053064;28;20071;-51
2022/08/17 06:23:24;;;;;;;5.55;1.90;;;;;;;25.75;41.05;100676.44;5035229;28;20032;-49
2022/08/17 06:25:55;;;;;;;3.63;1.55;;;;;;;25.84;40.95;100683.47;5035155;28;20028;-53
2022/08/17 06:28:31;;;;;;;6.70;1.70;;;;;;;25.95;40.81;100686.97;5035325;28;20372;-52
2022/08/17 06:31:04;;;;;;;4.55;1.83;;;;;;;26.05;40.67;100685.22;5034972;28;20468;-52
2022/08/17 06:33:36;;;;;;;1.20;1.10;;;;;;;26.08;40.71;100679.97;5034947;28;20029;-51
2022/08/17 06:36:33;;;;;;;3.50;1.35;;;;;;;26.13;40.67;100674.72;5035026;28;20383;-50
2022/08/17 06:39:25;;;;;;;2.53;1.17;;;;;;;26.18;40.33;100668.56;5045441;28;20047;-50
2022/08/17 06:42:20;;;;;;;1.77;1.00;;;;;;;26.29;40.21;100671.19;5032528;28;20082;-52
2022/08/17 06:45:01;;;;;;;1.80;1.00;;;;;;;26.35;40.49;100686.97;5052397;28;20048;-51
2022/08/17 06:47:35;;;;;;;2.88;1.35;;;;;;;26.28;40.36;100682.59;5052307;28;20562;-50
2022/08/17 06:50:17;;;;;;;1.92;0.90;;;;;;;26.35;40.49;100686.97;5052526;28;20017;-51
2022/08/17 06:53:11;;;;;;;2.15;1.20;;;;;;;26.36;41.32;100694.00;5018044;28;20052;-52
2022/08/17 06:55:46;;;;;;;3.60;1.30;;;;;;;26.37;40.57;100692.22;5034655;28;20029;-50
2022/08/17 06:58:22;;;;;;;5.45;1.02;;;;;;;26.50;40.67;100701.84;5035045;28;20167;-52
2022/08/17 07:00:58;;;;;;;2.53;1.10;;;;;;;26.40;40.75;100694.84;5052340;28;20024;-49
2022/08/17 07:03:37;;;;;;;1.50;1.05;;;;;;;26.56;40.98;100711.47;5052080;28;20083;-50
2022/08/17 07:06:13;;;;;;;1.92;1.10;;;;;;;26.48;40.79;100693.06;5052260;28;20028;-51
2022/08/17 07:09:05;;;;;;;3.03;1.00;;;;;;;26.53;41.14;100696.59;5051932;28;20369;-49
2022/08/17 07:11:57;;;;;;;1.58;1.08;;;;;;;26.64;40.78;100704.44;5034387;28;20032;-51
2022/08/17 07:14:35;;;;;;;5.13;1.90;;;;;;;26.70;41.40;100711.44;5046821;28;20033;-50
2022/08/17 07:17:22;;;;;;;7.70;2.30;;;;;;;26.77;41.15;100702.66;5034417;28;20094;-53
2022/08/17 07:19:55;;;;;;;5.78;1.70;;;;;;;26.88;40.69;100701.78;5034190;28;20032;-50
2022/08/17 07:22:33;;;;;;;2.10;1.65;;;;;;;26.94;41.05;100704.41;5034203;28;20057;-52
2022/08/17 07:25:07;;;;;;;3.00;1.63;;;;;;;26.97;40.78;100712.31;5051735;28;20041;-51
2022/08/17 07:27:44;;;;;;;3.33;1.83;;;;;;;26.94;40.78;100707.03;5034961;28;20021;-52
2022/08/17 07:30:23;;;;;;;4.60;2.70;;;;;;;26.98;40.86;100708.75;5056228;28;20098;-52
2022/08/17 07:32:59;;;;;;;8.00;2.13;;;;;;;26.96;41.14;100710.53;5038472;28;20029;-50
2022/08/17 07:35:38;;;;;;;2.83;1.58;;;;;;;27.04;41.01;100723.69;5055883;28;20039;-51
2022/08/17 07:38:16;;;;;;;3.40;1.90;;;;;;;27.03;40.99;100724.56;5055877;28;20460;-53
2022/08/17 07:41:05;;;;;;;3.38;1.75;;;;;;;27.03;41.51;100725.41;5055696;28;20033;-52
2022/08/17 07:43:36;;;;;;;3.22;1.88;;;;;;;27.10;41.19;100731.53;5055738;28;20028;-53
2022/08/17 07:49:11;;;;;;;3.88;1.50;;;;;;;27.19;41.11;100738.53;5035757;28;20159;-52
2022/08/17 07:51:50;;;;;;;4.18;2.13;;;;;;;27.17;41.26;100733.28;5055685;28;20033;-52
2022/08/17 07:54:21;;;;;;;3.97;1.90;;;;;;;27.12;41.37;100730.66;5055640;28;20114;-51
2022/08/17 07:57:11;;;;;;;2.65;1.70;;;;;;;27.11;41.29;100733.28;5055503;28;20029;-52
2022/08/17 07:59:43;;;;;;;2.03;1.40;;;;;;;27.14;41.22;100738.53;5055655;28;20420;-50
2022/08/17 08:02:16;;;;;;;3.08;1.63;;;;;;;27.15;41.32;100741.16;5037908;28;20060;-53
2022/08/17 08:04:49;;;;;;;2.47;1.40;;;;;;;27.17;40.87;100740.28;5054903;28;20064;-53
2022/08/17 08:07:19;;;;;;;4.43;2.05;;;;;;;27.19;41.25;100735.88;5037617;28;20029;-51
2022/08/17 08:10:12;;;;;;;2.90;1.40;;;;;;;27.18;41.17;100736.78;5037701;28;20021;-53
2022/08/17 08:12:44;;;;;;;1.90;1.05;;;;;;;27.21;41.44;100744.66;5050015;28;20033;-52
2022/08/17 08:15:24;;;;;;;2.75;1.45;;;;;;;27.21;41.65;100744.66;5037514;28;20029;-50
2022/08/17 08:17:56;;;;;;;8.52;2.05;;;;;;;27.13;41.59;100731.53;5037510;28;20016;-49
2022/08/17 08:20:35;;;;;;;9.70;1.70;;;;;;;27.24;41.40;100742.03;5037332;28;20029;-52
2022/08/17 08:23:11;;;;;;;6.18;1.90;;;;;;;27.24;41.28;100737.63;5037274;28;20031;-51
2022/08/17 08:26:03;;;;;;;5.45;1.83;;;;;;;27.28;41.27;100742.00;5054897;28;20033;-52
2022/08/17 08:28:36;;;;;;;6.47;1.48;;;;;;;27.32;41.25;100740.22;5051368;28;20191;-52
2022/08/17 08:31:13;;;;;;;4.93;1.60;;;;;;;27.32;41.30;100739.34;5054865;28;20017;-51
2022/08/17 08:34:21;;;;;;;2.92;1.35;;;;;;;27.23;41.19;100745.53;5037179;28;20036;-51
2022/08/17 08:36:51;;;;;;;4.28;1.25;;;;;;;27.20;41.36;100748.16;5053884;28;20036;-52
2022/08/17 08:39:21;;;;;;;2.50;1.10;;;;;;;27.15;41.50;100748.19;5035793;28;20022;-53
2022/08/17 08:42:00;;;;;;;5.70;1.67;;;;;;;27.14;41.27;100746.44;5037007;28;20399;-53
2022/08/17 08:44:48;;;;;;;3.13;1.08;;;;;;;27.17;41.36;100754.34;5037001;28;20036;-53
2022/08/17 08:47:20;;;;;;;1.55;1.00;;;;;;;27.18;41.46;100749.94;5047649;28;20048;-52
2022/08/17 08:49:54;;;;;;;2.38;1.20;;;;;;;27.17;41.26;100746.44;5037062;28;20092;-52
2022/08/17 08:52:29;;;;;;;1.30;0.88;;;;;;;27.17;41.28;100750.81;5036899;28;20045;-51
2022/08/17 08:55:06;;;;;;;3.60;1.00;;;;;;;27.19;41.22;100746.41;5054293;28;20041;-52
2022/08/17 08:57:40;;;;;;;1.05;0.88;;;;;;;27.22;41.57;100742.00;5036882;28;20021;-52
2022/08/17 09:00:12;;;;;;;1.80;0.95;;;;;;;27.31;40.84;100749.00;5036594;28;20395;-53
2022/08/17 09:03:18;;;;;;;2.50;1.13;;;;;;;27.30;41.01;100757.81;5054290;28;20689;-51
2022/08/17 09:06:06;;;;;;;4.18;1.08;;;;;;;27.32;41.04;100766.53;5050813;28;20037;-51
2022/08/17 09:09:05;;;;;;;2.03;1.10;;;;;;;27.32;41.01;100760.41;5046974;28;20037;-52
2022/08/17 09:11:56;;;;;;;1.73;1.00;;;;;;;27.40;40.88;100772.69;5047404;28;20037;-50
2022/08/17 09:14:45;;;;;;;1.48;0.80;;;;;;;27.27;40.88;100749.91;5030934;28;20480;-49
2022/08/17 09:17:30;;;;;;;2.60;1.40;;;;;;;27.39;40.82;100767.41;5053888;28;20391;-52
2022/08/17 09:20:15;;;;;;;1.75;0.77;;;;;;;27.44;40.66;100781.44;5036313;28;20035;-50
2022/08/17 09:22:48;;;;;;;2.40;1.05;;;;;;;27.42;40.97;100778.81;5053729;28;20025;-53
2022/08/17 09:25:25;;;;;;;1.13;0.90;;;;;;;27.49;40.62;100776.16;5053811;28;20033;-53
2022/08/17 09:27:58;;;;;;;1.35;1.00;;;;;;;27.47;40.58;100770.91;5035902;28;20484;-51
2022/08/17 09:30:41;;;;;;;1.88;0.93;;;;;;;27.47;40.79;100770.91;5036055;28;20021;-55
2022/08/17 09:33:09;;;;;;;4.57;0.95;;;;;;;27.54;40.66;100772.66;5036030;28;20123;-54
2022/08/17 09:35:45;;;;;;;3.83;1.05;;;;;;;27.53;40.73;100772.63;5053503;28;20021;-52
2022/08/17 09:38:33;;;;;;;5.15;1.13;;;;;;;27.52;40.91;100773.53;5045612;28;20024;-52
2022/08/17 09:41:36;;;;;;;4.35;1.15;;;;;;;27.49;40.42;100757.72;5033443;28;20373;-51
2022/08/17 09:44:16;;;;;;;2.17;1.17;;;;;;;27.52;40.53;100774.41;5046322;28;20049;-50
2022/08/17 09:46:51;;;;;;;4.20;0.93;;;;;;;27.56;40.46;100770.00;5035813;28;20072;-53
2022/08/17 09:49:41;;;;;;;3.30;1.10;;;;;;;27.50;40.56;100778.81;5035083;28;20025;-48
2022/08/17 09:52:17;;;;;;;3.42;1.00;;;;;;;27.57;40.49;100772.59;5035002;28;20398;-52
2022/08/17 09:54:46;;;;;;;8.30;1.15;;;;;;;27.66;40.45;100776.09;5053344;28;20158;-53
2022/08/17 09:57:22;;;;;;;6.13;1.30;;;;;;;27.63;40.42;100782.25;5053127;28;20116;-53
2022/08/17 10:00:17;;;;;;;2.60;1.23;;;;;;;27.65;40.63;100777.84;5053020;28;20036;-53
2022/08/17 10:02:49;;;;;;;2.78;0.90;;;;;;;27.67;40.21;100781.34;5049934;28;20033;-53
2022/08/17 10:05:23;;;;;;;4.10;1.20;;;;;;;27.69;40.26;100790.13;5053188;28;20029;-53
2022/08/17 10:08:02;;;;;;;12.45;2.00;;;;;;;27.66;40.32;100781.38;5053247;28;20460;-53
2022/08/17 10:10:54;;;;;;;8.18;2.08;;;;;;;27.77;39.96;100786.59;5035579;28;20029;-53
2022/08/17 10:13:52;;;;;;;9.38;3.03;;;;;;;27.74;40.14;100792.72;5053184;28;20029;-52
2022/08/17 10:16:43;;;;;;;5.28;1.35;;;;;;;27.75;40.01;100790.09;5034635;28;20387;-50
2022/08/17 10:19:15;;;;;;;13.40;1.92;;;;;;;27.74;39.99;100787.44;5047107;28;20036;-51
2022/08/17 10:27:39;;;;;;;3.65;1.70;;;;;;;27.74;40.07;100788.34;5034568;28;20037;-53
2022/08/17 10:30:09;;;;;;;5.00;1.45;;;;;;;27.76;39.85;100780.41;5035382;28;20420;-52
2022/08/17 10:32:46;;;;;;;7.20;2.30;;;;;;;27.76;40.16;100783.06;5035564;28;20053;-49
2022/08/17 10:35:52;;;;;;;6.35;1.30;;;;;;;27.78;39.87;100788.34;5034505;28;20055;-54
2022/08/17 10:38:40;;;;;;;3.88;1.55;;;;;;;27.82;40.11;100790.03;5051951;28;20500;-53
2022/08/17 10:41:46;;;;;;;5.18;2.00;;;;;;;27.74;40.23;100785.72;5035181;28;20403;-54
2022/08/17 10:44:38;;;;;;;3.70;1.67;;;;;;;27.84;39.87;100789.16;5052080;28;20041;-53
2022/08/17 10:47:10;;;;;;;3.10;1.33;;;;;;;27.93;39.74;100801.41;5052606;28;20028;-53
2022/08/17 10:50:01;;;;;;;3.78;1.25;;;;;;;27.90;39.70;100786.47;5052581;28;20039;-50
2022/08/17 10:52:46;;;;;;;2.08;0.90;;;;;;;27.86;39.98;100790.03;5052024;28;20111;-52
2022/08/17 10:55:17;;;;;;;4.00;1.30;;;;;;;27.88;39.94;100797.94;5052136;28;20123;-54
2022/08/17 10:57:48;;;;;;;4.35;0.95;;;;;;;27.87;39.86;100788.25;5052497;28;20177;-53
2022/08/17 11:00:27;;;;;;;4.03;1.50;;;;;;;27.94;39.76;100803.16;5034607;28;20021;-52
2022/08/17 11:02:56;;;;;;;3.00;0.88;;;;;;;27.92;39.75;100804.94;5033763;28;20021;-52
2022/08/17 11:05:51;;;;;;;2.55;1.10;;;;;;;27.89;39.80;100805.81;5052116;28;20121;-52
2022/08/17 11:08:57;;;;;;;4.90;1.33;;;;;;;27.86;39.87;100797.94;5048150;28;20037;-51
2022/08/17 11:11:57;;;;;;;6.82;1.50;;;;;;;27.86;39.81;100799.69;5045401;28;20308;-54
2022/08/17 11:14:48;;;;;;;6.75;1.33;;;;;;;27.90;39.91;100807.56;5045153;28;20107;-50
2022/08/17 11:17:39;;;;;;;7.28;1.48;;;;;;;27.98;39.68;100809.28;5034380;28;20399;-52
2022/08/17 11:20:19;;;;;;;4.00;1.40;;;;;;;27.93;39.97;100814.59;5034540;28;20021;-53
2022/08/17 11:22:59;;;;;;;3.95;1.00;;;;;;;27.97;39.90;100815.44;5051651;28;20087;-53
2022/08/17 11:25:57;;;;;;;6.20;1.27;;;;;;;27.97;40.15;100813.66;5051720;28;20131;-52
2022/08/17 11:28:33;;;;;;;8.70;1.42;;;;;;;27.96;39.79;100813.69;5051925;28;20521;-52
2022/08/17 11:31:31;;;;;;;4.53;1.25;;;;;;;27.98;39.97;100818.06;5051840;28;20031;-53
2022/08/17 11:34:21;;;;;;;3.42;1.10;;;;;;;28.02;39.92;100811.03;5052156;28;20034;-49
2022/08/17 11:36:53;;;;;;;3.38;1.27;;;;;;;28.04;39.74;100815.41;5052268;28;20090;-50
2022/08/17 11:39:34;;;;;;;2.00;0.93;;;;;;;28.02;39.96;100821.56;5051629;28;20439;-49
2022/08/17 11:42:31;;;;;;;5.13;1.15;;;;;;;28.03;39.88;100825.97;5051791;28;20029;-53
2022/08/17 11:45:07;;;;;;;2.92;1.08;;;;;;;28.01;39.89;100825.09;5051563;28;20055;-52
2022/08/17 11:53:50;;;;;;;4.45;1.15;;;;;;;28.07;39.70;100809.22;5045013;28;20128;-52
2022/08/17 11:56:40;;;;;;;3.72;1.00;;;;;;;28.10;39.85;100817.16;5052120;28;20379;-52
2022/08/17 11:59:32;;;;;;;3.05;1.15;;;;;;;28.08;39.91;100828.56;5027983;28;20036;-53
2022/08/17 12:02:02;;;;;;;3.30;1.20;;;;;;;28.16;39.61;100822.38;5047507;28;20404;-51
2022/08/17 12:04:33;;;;;;;2.83;1.00;;;;;;;28.16;39.71;100821.50;5033716;28;20495;-53
2022/08/17 12:07:21;;;;;;;4.53;0.95;;;;;;;28.20;39.48;100818.84;5051472;28;20108;-53
2022/08/17 12:09:52;;;;;;;4.80;1.23;;;;;;;28.16;39.60;100817.13;5051427;28;20013;-53
2022/08/17 12:12:28;;;;;;;4.63;1.38;;;;;;;28.21;39.60;100806.53;5034309;28;20060;-54
2022/08/17 12:14:57;;;;;;;4.03;1.13;;;;;;;28.29;39.40;100801.19;5053906;28;20478;-53
2022/08/17 12:17:29;;;;;;;2.50;0.70;;;;;;;28.21;39.63;100811.78;5055208;28;20492;-53
2022/08/17 12:20:31;;;;;;;4.93;1.05;;;;;;;28.27;39.30;100816.16;5055594;28;20095;-52
2022/08/17 12:23:23;;;;;;;3.30;0.90;;;;;;;28.30;39.25;100824.03;5037395;28;20087;-52
2022/08/17 12:25:57;;;;;;;4.13;1.33;;;;;;;28.28;39.48;100817.91;5054974;28;20025;-52
2022/08/17 12:28:29;;;;;;;6.10;1.30;;;;;;;28.24;39.50;100822.34;5055271;28;20059;-53
2022/08/17 12:31:02;;;;;;;3.30;1.20;;;;;;;28.30;39.60;100831.97;5055242;28;20029;-52